• Join FlightAware (Why Join?)
  • Login
  • US Flag 
04:44PM EST


 

Airport Tracker/Info


-or-


 

Live Flight TrackerFlight Track Log ✈ GJS6221 ✈ 07-Aug-2013 ✈ CYUL - KLGA

Flight Track Log - Related Links

Times and Time Zones

All times are in EDT time to prevent confusion due to time zone crossing. See the GJS6221 flight status page for this flight to view local times or setup timezone preferences in your user account.

Time Position Orientation Groundspeed Altitude Reporting Facility
EDT Latitude Longitude Course Direction KTS MPH feet Rate Location/Type
07:16AM 45.4500 -73.7500 207° Southwest 110 127 900  Level Montreal Center
07:17AM 45.4167 -73.7667 199° South 190 219 2,800 1,980 Climbing Montreal Center
07:18AM 45.3500 -73.8167 208° Southwest 250 288 4,900 2,580 Climbing Montreal Center
07:19AM 45.2833 -73.8500 199° South 250 288 8,000 2,700 Climbing Montreal Center
07:20AM 45.2000 -73.9000 203° Southwest 280 322 10,300 1,800 Climbing Montreal Center
07:21AM 44.9866 -74.0810 207° Southwest  Level FlightAware Approximate
07:21AM 45.1167 -73.9000 180° South 320 368 11,700  Level Montreal Center
07:22AM 45.0333 -73.9000 180° South 340 391 14,000 2,100 Climbing Montreal Center
07:23AM 44.9333 -73.9167 187° South 360 414 16,000 1,860 Climbing Montreal Center
07:24AM 44.8333 -73.8833 167° South 370 426 17,800 1,740 Climbing Montreal Center
07:25AM 44.7167 -73.9000 186° South 380 437 19,500 1,620 Climbing Montreal Center
07:26AM 44.6167 -73.8833 173° South 390 449 21,100 1,500 Climbing Montreal Center
07:27AM 44.5000 -73.8833 180° South 400 460 22,500 1,320 Climbing Montreal Center
07:28AM 44.4000 -73.8833 180° South 420 483 23,800 1,260 Climbing Montreal Center
07:29AM 44.2667 -73.8667 175° South 430 495 25,100 1,200 Climbing Montreal Center
07:30AM 44.1500 -73.8667 180° South 430 495 26,300 1,080 Climbing Montreal Center
07:31AM 44.0333 -73.8500 174° South 440 506 27,300 960 Climbing Montreal Center
07:32AM 43.9167 -73.8500 180° South 440 506 28,300 1,020 Climbing Montreal Center
07:33AM 43.7833 -73.8333 175° South 450 518 29,400 960 Climbing Montreal Center
07:34AM 43.6500 -73.8500 185° South 450 518 30,300 960 Climbing Montreal Center
07:35AM 43.5333 -73.8333 174° South 450 518 31,400 840 Climbing Montreal Center
07:35AM 43.5172 -73.8458 209° Southwest 455 524 31,600 180 Climbing Boston Center
07:36AM 43.3464 -73.8333 177° South 460 529 31,700 -960 Climbing Boston Center
07:37AM 43.2131 -73.8275 178° South 471 542 29,700 -2,040 Descending Boston Center
07:38AM 43.0839 -73.8217 178° South 476 548 27,700 -1,920 Descending Boston Center
07:39AM 42.9631 -73.8161 178° South 458 527 25,900 -1,680 Descending Boston Center
07:40AM 42.8464 -73.8106 178° South 438 504 24,500 -1,260 Descending Boston Center
07:41AM 42.7319 -73.7997 176° South 425 489 23,400 -1,080 Descending Boston Center
07:42AM 42.6156 -73.7717 170° South 418 481 22,400 -960 Descending Boston Center
07:43AM 42.5097 -73.7383 167° South 412 474 21,500 -960 Descending Boston Center
07:44AM 42.4119 -73.7083 167° South 407 468 20,500 -1,020 Descending Boston Center
07:45AM 42.3019 -73.6753 167° South 397 457 19,500 -1,020 Descending Boston Center
07:46AM 42.2058 -73.6872 185° South 384 442 18,500 -780 Descending Boston Center
07:47AM 42.1036 -73.6992 185° South 377 434 18,000 -300 Descending Boston Center
07:48AM 41.9911 -73.7139 186° South 377 434 18,000  Level Boston Center
07:49AM 41.8886 -73.7256 185° South 368 423 18,000 -60 Level Boston Center
07:50AM 41.7864 -73.7403 186° South 368 423 17,900 -1,080 Descending Boston Center
07:51AM 41.6861 -73.7550 186° South 368 423 15,900 -2,400 Descending Boston Center
07:53AM 41.5500 -73.7667 184° South 342 394 12,300 -2,280 Descending New York TRACON
07:54AM 41.4500 -73.7833 187° South 323 372 10,500 -1,380 Descending New York TRACON
07:55AM 41.3833 -73.7833 180° South 280 322 9,700 -1,260 Descending New York TRACON
07:56AM 41.3167 -73.7667 169° South 278 320 8,200 -1,500 Descending New York TRACON
07:57AM 41.2500 -73.7167 151° Southeast 274 315 6,700 -1,320 Descending New York TRACON
07:58AM 41.2000 -73.6667 143° Southeast 269 310 5,600 -1,140 Descending New York TRACON
07:58AM 41.1333 -73.6500 169° South 254 292 4,600 -900 Descending New York TRACON
07:59AM 41.0667 -73.6833 201° Southwest 254 292 4,000 -300 Descending New York TRACON
08:00AM 41.0000 -73.7167 201° Southwest 252 290 4,000 -240 Level New York TRACON
08:01AM 40.9333 -73.7500 201° Southwest 231 266 3,600 -840 Descending New York TRACON
08:02AM 40.8833 -73.7833 207° Southwest 197 227 2,400 -1,080 Descending New York TRACON
08:04AM 40.8500 -73.8167 217° Southwest 148 170 1,400 -840 Descending New York TRACON
08:04AM 40.8167 -73.8500 217° Southwest 134 154 800 -720 Descending New York TRACON